sensor_id;sensor_type;location;lat;lon;timestamp;P1;durP1;ratioP1;P2;durP2;ratioP2
38413;SDS011;24195;48.654;9.294;2022-07-11T00:00:05;3.13;;;2.87;;
38413;SDS011;24195;48.654;9.294;2022-07-11T00:02:38;2.60;;;2.40;;
38413;SDS011;24195;48.654;9.294;2022-07-11T00:05:04;3.20;;;2.80;;
38413;SDS011;24195;48.654;9.294;2022-07-11T00:07:31;3.17;;;2.70;;
38413;SDS011;24195;48.654;9.294;2022-07-11T00:09:56;2.87;;;2.67;;
38413;SDS011;24195;48.654;9.294;2022-07-11T00:12:22;2.73;;;2.53;;
38413;SDS011;24195;48.654;9.294;2022-07-11T00:14:51;3.43;;;2.83;;
38413;SDS011;24195;48.654;9.294;2022-07-11T00:17:18;3.03;;;2.83;;
38413;SDS011;24195;48.654;9.294;2022-07-11T00:19:43;2.77;;;2.57;;
38413;SDS011;24195;48.654;9.294;2022-07-11T00:22:10;2.73;;;2.50;;
38413;SDS011;24195;48.654;9.294;2022-07-11T00:24:36;3.40;;;2.77;;
38413;SDS011;24195;48.654;9.294;2022-07-11T00:27:02;2.93;;;2.73;;
38413;SDS011;24195;48.654;9.294;2022-07-11T00:29:27;3.33;;;2.60;;
38413;SDS011;24195;48.654;9.294;2022-07-11T00:31:54;5.20;;;2.50;;
38413;SDS011;24195;48.654;9.294;2022-07-11T00:34:19;5.37;;;2.70;;
38413;SDS011;24195;48.654;9.294;2022-07-11T00:36:46;2.60;;;2.40;;
38413;SDS011;24195;48.654;9.294;2022-07-11T00:39:11;2.83;;;2.40;;
38413;SDS011;24195;48.654;9.294;2022-07-11T00:41:37;3.03;;;2.83;;
38413;SDS011;24195;48.654;9.294;2022-07-11T00:44:02;2.83;;;2.60;;
38413;SDS011;24195;48.654;9.294;2022-07-11T00:46:28;2.37;;;2.27;;
38413;SDS011;24195;48.654;9.294;2022-07-11T00:48:55;2.63;;;2.43;;
38413;SDS011;24195;48.654;9.294;2022-07-11T00:51:22;2.90;;;2.70;;
38413;SDS011;24195;48.654;9.294;2022-07-11T00:53:49;2.90;;;2.70;;
38413;SDS011;24195;48.654;9.294;2022-07-11T00:56:22;6.87;;;2.50;;
38413;SDS011;24195;48.654;9.294;2022-07-11T00:58:50;2.27;;;2.17;;
38413;SDS011;24195;48.654;9.294;2022-07-11T01:01:18;3.70;;;2.50;;
38413;SDS011;24195;48.654;9.294;2022-07-11T01:03:44;2.80;;;2.57;;
38413;SDS011;24195;48.654;9.294;2022-07-11T01:06:10;2.47;;;2.27;;
38413;SDS011;24195;48.654;9.294;2022-07-11T01:08:37;5.57;;;2.97;;
38413;SDS011;24195;48.654;9.294;2022-07-11T01:11:04;2.70;;;2.50;;
38413;SDS011;24195;48.654;9.294;2022-07-11T01:13:35;3.23;;;2.67;;
38413;SDS011;24195;48.654;9.294;2022-07-11T01:18:37;2.60;;;2.40;;
38413;SDS011;24195;48.654;9.294;2022-07-11T01:21:06;4.40;;;3.23;;
38413;SDS011;24195;48.654;9.294;2022-07-11T01:23:41;2.63;;;2.43;;
38413;SDS011;24195;48.654;9.294;2022-07-11T01:26:07;5.33;;;2.63;;
38413;SDS011;24195;48.654;9.294;2022-07-11T01:28:32;2.50;;;2.40;;
38413;SDS011;24195;48.654;9.294;2022-07-11T01:30:58;2.50;;;2.40;;
38413;SDS011;24195;48.654;9.294;2022-07-11T01:33:23;4.03;;;2.63;;
38413;SDS011;24195;48.654;9.294;2022-07-11T01:35:49;3.00;;;2.40;;
38413;SDS011;24195;48.654;9.294;2022-07-11T01:38:14;3.17;;;2.97;;
38413;SDS011;24195;48.654;9.294;2022-07-11T01:40:40;3.00;;;2.63;;
38413;SDS011;24195;48.654;9.294;2022-07-11T01:43:07;2.87;;;2.67;;
38413;SDS011;24195;48.654;9.294;2022-07-11T01:45:32;5.93;;;2.93;;
38413;SDS011;24195;48.654;9.294;2022-07-11T01:47:58;2.93;;;2.80;;
38413;SDS011;24195;48.654;9.294;2022-07-11T01:50:23;3.00;;;2.70;;
38413;SDS011;24195;48.654;9.294;2022-07-11T01:52:49;3.40;;;3.20;;
38413;SDS011;24195;48.654;9.294;2022-07-11T01:55:14;3.50;;;3.20;;
38413;SDS011;24195;48.654;9.294;2022-07-11T01:57:40;4.30;;;2.83;;
38413;SDS011;24195;48.654;9.294;2022-07-11T02:00:05;2.80;;;2.60;;
38413;SDS011;24195;48.654;9.294;2022-07-11T02:02:34;2.83;;;2.60;;
38413;SDS011;24195;48.654;9.294;2022-07-11T02:05:00;2.80;;;2.60;;
38413;SDS011;24195;48.654;9.294;2022-07-11T02:07:25;3.17;;;2.73;;
38413;SDS011;24195;48.654;9.294;2022-07-11T02:10:09;3.60;;;2.77;;
38413;SDS011;24195;48.654;9.294;2022-07-11T02:12:35;5.07;;;2.93;;
38413;SDS011;24195;48.654;9.294;2022-07-11T02:15:00;3.13;;;2.87;;
38413;SDS011;24195;48.654;9.294;2022-07-11T02:17:26;4.70;;;3.00;;
38413;SDS011;24195;48.654;9.294;2022-07-11T02:19:51;3.00;;;2.80;;
38413;SDS011;24195;48.654;9.294;2022-07-11T02:22:18;3.20;;;3.00;;
38413;SDS011;24195;48.654;9.294;2022-07-11T02:24:44;3.73;;;3.43;;
38413;SDS011;24195;48.654;9.294;2022-07-11T02:27:09;2.87;;;2.67;;
38413;SDS011;24195;48.654;9.294;2022-07-11T02:29:35;2.80;;;2.60;;
38413;SDS011;24195;48.654;9.294;2022-07-11T02:32:00;3.83;;;3.20;;
38413;SDS011;24195;48.654;9.294;2022-07-11T02:34:26;3.10;;;2.90;;
38413;SDS011;24195;48.654;9.294;2022-07-11T02:36:53;4.97;;;2.80;;
38413;SDS011;24195;48.654;9.294;2022-07-11T02:39:19;4.07;;;3.00;;
38413;SDS011;24195;48.654;9.294;2022-07-11T02:41:44;2.87;;;2.67;;
38413;SDS011;24195;48.654;9.294;2022-07-11T02:44:10;2.87;;;2.60;;
38413;SDS011;24195;48.654;9.294;2022-07-11T02:46:35;3.70;;;2.80;;
38413;SDS011;24195;48.654;9.294;2022-07-11T02:49:01;4.10;;;3.10;;
38413;SDS011;24195;48.654;9.294;2022-07-11T02:51:29;3.90;;;2.70;;
38413;SDS011;24195;48.654;9.294;2022-07-11T02:53:55;2.97;;;2.77;;
38413;SDS011;24195;48.654;9.294;2022-07-11T02:56:21;3.63;;;3.33;;
38413;SDS011;24195;48.654;9.294;2022-07-11T02:58:46;4.32;;;3.00;;
38413;SDS011;24195;48.654;9.294;2022-07-11T03:01:12;3.37;;;3.13;;
38413;SDS011;24195;48.654;9.294;2022-07-11T03:03:37;3.50;;;3.27;;
38413;SDS011;24195;48.654;9.294;2022-07-11T03:06:06;4.10;;;3.77;;
38413;SDS011;24195;48.654;9.294;2022-07-11T03:08:31;4.23;;;3.83;;
38413;SDS011;24195;48.654;9.294;2022-07-11T03:10:57;4.40;;;3.40;;
38413;SDS011;24195;48.654;9.294;2022-07-11T03:13:22;3.40;;;3.10;;
38413;SDS011;24195;48.654;9.294;2022-07-11T03:15:48;2.97;;;2.77;;
38413;SDS011;24195;48.654;9.294;2022-07-11T03:18:13;3.80;;;3.27;;
38413;SDS011;24195;48.654;9.294;2022-07-11T03:20:39;3.87;;;3.67;;
38413;SDS011;24195;48.654;9.294;2022-07-11T03:23:04;3.87;;;3.57;;
38413;SDS011;24195;48.654;9.294;2022-07-11T03:25:30;3.70;;;3.50;;
38413;SDS011;24195;48.654;9.294;2022-07-11T03:27:55;5.60;;;3.30;;
38413;SDS011;24195;48.654;9.294;2022-07-11T03:30:21;2.90;;;2.70;;
38413;SDS011;24195;48.654;9.294;2022-07-11T03:32:47;4.30;;;3.33;;
38413;SDS011;24195;48.654;9.294;2022-07-11T03:35:12;5.17;;;3.50;;
38413;SDS011;24195;48.654;9.294;2022-07-11T03:37:56;4.23;;;3.40;;
38413;SDS011;24195;48.654;9.294;2022-07-11T03:40:22;3.93;;;3.30;;
38413;SDS011;24195;48.654;9.294;2022-07-11T03:42:47;4.10;;;3.80;;
38413;SDS011;24195;48.654;9.294;2022-07-11T03:45:13;3.67;;;3.37;;
38413;SDS011;24195;48.654;9.294;2022-07-11T03:47:39;3.83;;;3.33;;
38413;SDS011;24195;48.654;9.294;2022-07-11T03:50:04;3.30;;;3.00;;
38413;SDS011;24195;48.654;9.294;2022-07-11T03:52:31;4.00;;;3.70;;
38413;SDS011;24195;48.654;9.294;2022-07-11T03:54:57;4.03;;;3.50;;
38413;SDS011;24195;48.654;9.294;2022-07-11T03:57:22;4.20;;;3.90;;
38413;SDS011;24195;48.654;9.294;2022-07-11T03:59:48;3.67;;;3.37;;
38413;SDS011;24195;48.654;9.294;2022-07-11T04:02:13;3.50;;;3.30;;
38413;SDS011;24195;48.654;9.294;2022-07-11T04:04:39;3.83;;;3.43;;
38413;SDS011;24195;48.654;9.294;2022-07-11T04:07:04;4.00;;;3.60;;
38413;SDS011;24195;48.654;9.294;2022-07-11T04:09:30;3.70;;;3.30;;
38413;SDS011;24195;48.654;9.294;2022-07-11T04:11:56;4.03;;;3.47;;
38413;SDS011;24195;48.654;9.294;2022-07-11T04:14:21;3.57;;;3.30;;
38413;SDS011;24195;48.654;9.294;2022-07-11T04:16:47;9.00;;;4.73;;
38413;SDS011;24195;48.654;9.294;2022-07-11T04:19:12;3.40;;;3.17;;
38413;SDS011;24195;48.654;9.294;2022-07-11T04:21:38;3.90;;;3.60;;
38413;SDS011;24195;48.654;9.294;2022-07-11T04:24:03;3.83;;;3.23;;
38413;SDS011;24195;48.654;9.294;2022-07-11T04:26:29;3.73;;;3.43;;
38413;SDS011;24195;48.654;9.294;2022-07-11T04:28:55;3.87;;;3.43;;
38413;SDS011;24195;48.654;9.294;2022-07-11T04:31:20;4.20;;;3.90;;
38413;SDS011;24195;48.654;9.294;2022-07-11T04:33:46;3.90;;;3.60;;
38413;SDS011;24195;48.654;9.294;2022-07-11T04:36:14;3.67;;;3.40;;
38413;SDS011;24195;48.654;9.294;2022-07-11T04:38:40;3.27;;;3.07;;
38413;SDS011;24195;48.654;9.294;2022-07-11T04:41:08;3.60;;;3.40;;
38413;SDS011;24195;48.654;9.294;2022-07-11T04:43:34;4.23;;;3.77;;
38413;SDS011;24195;48.654;9.294;2022-07-11T04:46:02;3.50;;;3.20;;
38413;SDS011;24195;48.654;9.294;2022-07-11T04:48:29;4.03;;;3.70;;
38413;SDS011;24195;48.654;9.294;2022-07-11T04:50:55;7.90;;;4.00;;
38413;SDS011;24195;48.654;9.294;2022-07-11T04:53:21;4.07;;;3.67;;
38413;SDS011;24195;48.654;9.294;2022-07-11T04:55:46;3.70;;;3.50;;
38413;SDS011;24195;48.654;9.294;2022-07-11T04:58:12;4.30;;;3.90;;
38413;SDS011;24195;48.654;9.294;2022-07-11T05:00:37;3.87;;;3.57;;
38413;SDS011;24195;48.654;9.294;2022-07-11T05:03:03;4.27;;;3.87;;
38413;SDS011;24195;48.654;9.294;2022-07-11T05:05:34;4.60;;;4.20;;
38413;SDS011;24195;48.654;9.294;2022-07-11T05:08:00;3.53;;;3.23;;
38413;SDS011;24195;48.654;9.294;2022-07-11T05:10:25;3.60;;;3.30;;
38413;SDS011;24195;48.654;9.294;2022-07-11T05:12:51;4.23;;;3.73;;
38413;SDS011;24195;48.654;9.294;2022-07-11T05:15:16;3.87;;;3.57;;
38413;SDS011;24195;48.654;9.294;2022-07-11T05:17:42;3.70;;;3.40;;
38413;SDS011;24195;48.654;9.294;2022-07-11T05:20:08;4.10;;;3.80;;
38413;SDS011;24195;48.654;9.294;2022-07-11T05:22:33;3.90;;;3.70;;
38413;SDS011;24195;48.654;9.294;2022-07-11T05:24:59;3.80;;;3.50;;
38413;SDS011;24195;48.654;9.294;2022-07-11T05:27:24;3.60;;;3.27;;
38413;SDS011;24195;48.654;9.294;2022-07-11T05:29:50;4.83;;;4.43;;
38413;SDS011;24195;48.654;9.294;2022-07-11T05:32:15;3.70;;;3.40;;
38413;SDS011;24195;48.654;9.294;2022-07-11T05:34:41;3.77;;;3.47;;
38413;SDS011;24195;48.654;9.294;2022-07-11T05:37:07;4.20;;;3.80;;
38413;SDS011;24195;48.654;9.294;2022-07-11T05:39:32;4.47;;;4.07;;
38413;SDS011;24195;48.654;9.294;2022-07-11T05:41:58;4.50;;;4.10;;
38413;SDS011;24195;48.654;9.294;2022-07-11T05:44:23;4.33;;;4.03;;
38413;SDS011;24195;48.654;9.294;2022-07-11T05:46:49;4.40;;;4.00;;
38413;SDS011;24195;48.654;9.294;2022-07-11T05:49:15;4.23;;;3.93;;
38413;SDS011;24195;48.654;9.294;2022-07-11T05:51:41;3.57;;;3.20;;
38413;SDS011;24195;48.654;9.294;2022-07-11T05:54:06;4.37;;;3.97;;
38413;SDS011;24195;48.654;9.294;2022-07-11T05:56:32;4.53;;;4.13;;
38413;SDS011;24195;48.654;9.294;2022-07-11T05:58:57;3.90;;;3.60;;
38413;SDS011;24195;48.654;9.294;2022-07-11T06:01:32;6.00;;;4.00;;
38413;SDS011;24195;48.654;9.294;2022-07-11T06:03:58;4.20;;;3.90;;
38413;SDS011;24195;48.654;9.294;2022-07-11T06:06:27;4.03;;;3.67;;
38413;SDS011;24195;48.654;9.294;2022-07-11T06:08:53;4.13;;;3.83;;
38413;SDS011;24195;48.654;9.294;2022-07-11T06:11:18;4.27;;;3.87;;
38413;SDS011;24195;48.654;9.294;2022-07-11T06:13:47;3.47;;;3.23;;
38413;SDS011;24195;48.654;9.294;2022-07-11T06:16:14;4.07;;;3.63;;
38413;SDS011;24195;48.654;9.294;2022-07-11T06:18:41;4.10;;;3.67;;
38413;SDS011;24195;48.654;9.294;2022-07-11T06:21:13;3.30;;;3.00;;
38413;SDS011;24195;48.654;9.294;2022-07-11T06:23:38;4.47;;;3.43;;
38413;SDS011;24195;48.654;9.294;2022-07-11T06:26:05;4.37;;;3.97;;
38413;SDS011;24195;48.654;9.294;2022-07-11T06:28:31;4.10;;;3.80;;
38413;SDS011;24195;48.654;9.294;2022-07-11T06:30:57;4.20;;;3.90;;
38413;SDS011;24195;48.654;9.294;2022-07-11T06:33:22;4.23;;;3.83;;
38413;SDS011;24195;48.654;9.294;2022-07-11T06:35:51;3.77;;;3.47;;
38413;SDS011;24195;48.654;9.294;2022-07-11T06:38:17;4.27;;;4.00;;
38413;SDS011;24195;48.654;9.294;2022-07-11T06:40:43;4.53;;;3.90;;
38413;SDS011;24195;48.654;9.294;2022-07-11T06:43:09;3.73;;;3.43;;
38413;SDS011;24195;48.654;9.294;2022-07-11T06:45:35;4.07;;;3.67;;
38413;SDS011;24195;48.654;9.294;2022-07-11T06:48:01;5.23;;;4.47;;
38413;SDS011;24195;48.654;9.294;2022-07-11T06:50:40;4.03;;;3.70;;
38413;SDS011;24195;48.654;9.294;2022-07-11T06:53:09;4.77;;;4.40;;
38413;SDS011;24195;48.654;9.294;2022-07-11T06:55:34;4.60;;;4.20;;
38413;SDS011;24195;48.654;9.294;2022-07-11T06:58:00;4.53;;;4.13;;
38413;SDS011;24195;48.654;9.294;2022-07-11T07:00:33;4.27;;;3.97;;
38413;SDS011;24195;48.654;9.294;2022-07-11T07:02:59;4.47;;;4.07;;
38413;SDS011;24195;48.654;9.294;2022-07-11T07:05:24;4.30;;;4.00;;
38413;SDS011;24195;48.654;9.294;2022-07-11T07:07:53;5.23;;;4.37;;
38413;SDS011;24195;48.654;9.294;2022-07-11T07:10:19;4.40;;;4.10;;
38413;SDS011;24195;48.654;9.294;2022-07-11T07:12:45;4.20;;;3.80;;
38413;SDS011;24195;48.654;9.294;2022-07-11T07:15:12;6.30;;;4.50;;
38413;SDS011;24195;48.654;9.294;2022-07-11T07:17:39;4.80;;;4.43;;
38413;SDS011;24195;48.654;9.294;2022-07-11T07:20:07;4.63;;;4.13;;
38413;SDS011;24195;48.654;9.294;2022-07-11T07:22:35;4.83;;;4.47;;
38413;SDS011;24195;48.654;9.294;2022-07-11T07:25:01;5.97;;;4.90;;
38413;SDS011;24195;48.654;9.294;2022-07-11T07:27:26;4.37;;;4.07;;
38413;SDS011;24195;48.654;9.294;2022-07-11T07:35:52;4.37;;;3.90;;
38413;SDS011;24195;48.654;9.294;2022-07-11T07:38:19;4.57;;;3.60;;
38413;SDS011;24195;48.654;9.294;2022-07-11T07:40:48;5.10;;;4.70;;
38413;SDS011;24195;48.654;9.294;2022-07-11T07:43:16;5.00;;;4.37;;
38413;SDS011;24195;48.654;9.294;2022-07-11T07:45:42;8.93;;;3.90;;
38413;SDS011;24195;48.654;9.294;2022-07-11T07:48:10;4.20;;;3.90;;
38413;SDS011;24195;48.654;9.294;2022-07-11T07:50:36;4.10;;;3.80;;
38413;SDS011;24195;48.654;9.294;2022-07-11T07:53:01;5.37;;;4.83;;
38413;SDS011;24195;48.654;9.294;2022-07-11T07:55:30;6.13;;;4.67;;
38413;SDS011;24195;48.654;9.294;2022-07-11T07:57:58;4.50;;;4.20;;
38413;SDS011;24195;48.654;9.294;2022-07-11T08:00:24;4.10;;;3.70;;
38413;SDS011;24195;48.654;9.294;2022-07-11T08:03:08;4.13;;;3.83;;
38413;SDS011;24195;48.654;9.294;2022-07-11T08:05:34;4.57;;;4.27;;
38413;SDS011;24195;48.654;9.294;2022-07-11T08:08:02;4.10;;;3.80;;
38413;SDS011;24195;48.654;9.294;2022-07-11T08:10:31;4.30;;;4.00;;
38413;SDS011;24195;48.654;9.294;2022-07-11T08:12:56;4.90;;;3.50;;
38413;SDS011;24195;48.654;9.294;2022-07-11T08:15:22;3.70;;;3.40;;
38413;SDS011;24195;48.654;9.294;2022-07-11T08:17:48;3.20;;;3.00;;
38413;SDS011;24195;48.654;9.294;2022-07-11T08:20:17;3.50;;;3.20;;
38413;SDS011;24195;48.654;9.294;2022-07-11T08:22:51;3.20;;;3.00;;
38413;SDS011;24195;48.654;9.294;2022-07-11T08:25:17;3.33;;;3.13;;
38413;SDS011;24195;48.654;9.294;2022-07-11T08:27:42;3.63;;;3.33;;
38413;SDS011;24195;48.654;9.294;2022-07-11T08:30:08;3.27;;;2.97;;
38413;SDS011;24195;48.654;9.294;2022-07-11T08:32:41;3.10;;;2.90;;
38413;SDS011;24195;48.654;9.294;2022-07-11T08:35:07;2.57;;;2.43;;
38413;SDS011;24195;48.654;9.294;2022-07-11T08:37:32;3.03;;;2.83;;
38413;SDS011;24195;48.654;9.294;2022-07-11T08:39:58;3.00;;;2.27;;
38413;SDS011;24195;48.654;9.294;2022-07-11T08:42:28;2.57;;;2.37;;
38413;SDS011;24195;48.654;9.294;2022-07-11T08:44:55;2.53;;;2.43;;
38413;SDS011;24195;48.654;9.294;2022-07-11T08:47:22;5.23;;;2.53;;
38413;SDS011;24195;48.654;9.294;2022-07-11T08:49:52;2.33;;;2.20;;
38413;SDS011;24195;48.654;9.294;2022-07-11T08:52:22;2.47;;;2.20;;
38413;SDS011;24195;48.654;9.294;2022-07-11T08:54:51;2.10;;;2.00;;
38413;SDS011;24195;48.654;9.294;2022-07-11T08:57:17;2.83;;;2.00;;
38413;SDS011;24195;48.654;9.294;2022-07-11T08:59:47;1.50;;;1.40;;
38413;SDS011;24195;48.654;9.294;2022-07-11T09:02:13;1.67;;;1.57;;
38413;SDS011;24195;48.654;9.294;2022-07-11T09:04:42;1.70;;;1.60;;
38413;SDS011;24195;48.654;9.294;2022-07-11T09:07:08;1.20;;;1.20;;
38413;SDS011;24195;48.654;9.294;2022-07-11T09:09:33;2.00;;;1.90;;
38413;SDS011;24195;48.654;9.294;2022-07-11T09:12:09;1.60;;;1.43;;
38413;SDS011;24195;48.654;9.294;2022-07-11T09:14:39;1.33;;;1.27;;
38413;SDS011;24195;48.654;9.294;2022-07-11T09:17:26;1.43;;;1.33;;
38413;SDS011;24195;48.654;9.294;2022-07-11T09:19:56;1.20;;;1.10;;
38413;SDS011;24195;48.654;9.294;2022-07-11T09:22:25;1.83;;;0.80;;
38413;SDS011;24195;48.654;9.294;2022-07-11T09:25:15;1.17;;;1.07;;
38413;SDS011;24195;48.654;9.294;2022-07-11T09:27:59;1.00;;;0.90;;
38413;SDS011;24195;48.654;9.294;2022-07-11T09:30:39;1.20;;;1.17;;
38413;SDS011;24195;48.654;9.294;2022-07-11T09:33:05;1.20;;;1.10;;
38413;SDS011;24195;48.654;9.294;2022-07-11T09:35:38;0.80;;;0.80;;
38413;SDS011;24195;48.654;9.294;2022-07-11T09:38:12;0.93;;;0.93;;
38413;SDS011;24195;48.654;9.294;2022-07-11T09:40:45;0.80;;;0.80;;
38413;SDS011;24195;48.654;9.294;2022-07-11T09:43:12;0.97;;;0.97;;
38413;SDS011;24195;48.654;9.294;2022-07-11T09:45:38;3.47;;;0.90;;
38413;SDS011;24195;48.654;9.294;2022-07-11T09:48:12;0.97;;;0.97;;
38413;SDS011;24195;48.654;9.294;2022-07-11T09:53:55;0.90;;;0.90;;
38413;SDS011;24195;48.654;9.294;2022-07-11T09:56:38;1.10;;;1.10;;
38413;SDS011;24195;48.654;9.294;2022-07-11T09:59:05;1.20;;;1.03;;
38413;SDS011;24195;48.654;9.294;2022-07-11T10:01:31;1.00;;;1.00;;
38413;SDS011;24195;48.654;9.294;2022-07-11T10:03:58;1.00;;;1.00;;
38413;SDS011;24195;48.654;9.294;2022-07-11T10:06:24;1.00;;;1.00;;
38413;SDS011;24195;48.654;9.294;2022-07-11T10:08:50;1.13;;;0.97;;
38413;SDS011;24195;48.654;9.294;2022-07-11T10:11:17;1.47;;;0.93;;
38413;SDS011;24195;48.654;9.294;2022-07-11T10:13:43;1.10;;;1.10;;
38413;SDS011;24195;48.654;9.294;2022-07-11T10:24:04;1.00;;;1.00;;
38413;SDS011;24195;48.654;9.294;2022-07-11T10:26:54;1.70;;;1.40;;
38413;SDS011;24195;48.654;9.294;2022-07-11T10:29:29;1.30;;;1.20;;
38413;SDS011;24195;48.654;9.294;2022-07-11T10:34:32;1.30;;;1.20;;
38413;SDS011;24195;48.654;9.294;2022-07-11T10:36:59;1.30;;;1.20;;
38413;SDS011;24195;48.654;9.294;2022-07-11T10:39:29;2.50;;;1.30;;
38413;SDS011;24195;48.654;9.294;2022-07-11T10:41:57;1.07;;;1.07;;
38413;SDS011;24195;48.654;9.294;2022-07-11T10:44:25;1.63;;;1.53;;
38413;SDS011;24195;48.654;9.294;2022-07-11T10:46:52;1.33;;;1.30;;
38413;SDS011;24195;48.654;9.294;2022-07-11T10:49:36;1.47;;;1.37;;
38413;SDS011;24195;48.654;9.294;2022-07-11T10:52:06;1.20;;;1.20;;
38413;SDS011;24195;48.654;9.294;2022-07-11T11:00:12;1.50;;;1.40;;
38413;SDS011;24195;48.654;9.294;2022-07-11T11:02:59;1.20;;;1.10;;
38413;SDS011;24195;48.654;9.294;2022-07-11T11:05:41;2.10;;;1.20;;
38413;SDS011;24195;48.654;9.294;2022-07-11T11:16:46;1.90;;;1.80;;
38413;SDS011;24195;48.654;9.294;2022-07-11T11:22:16;1.20;;;1.10;;
38413;SDS011;24195;48.654;9.294;2022-07-11T11:24:43;1.30;;;1.20;;
38413;SDS011;24195;48.654;9.294;2022-07-11T11:27:31;1.13;;;1.13;;
38413;SDS011;24195;48.654;9.294;2022-07-11T11:29:56;1.50;;;1.40;;
38413;SDS011;24195;48.654;9.294;2022-07-11T11:32:22;1.87;;;1.63;;
38413;SDS011;24195;48.654;9.294;2022-07-11T11:34:57;1.50;;;1.40;;
38413;SDS011;24195;48.654;9.294;2022-07-11T11:37:50;1.73;;;1.63;;
38413;SDS011;24195;48.654;9.294;2022-07-11T11:40:28;2.77;;;1.77;;
38413;SDS011;24195;48.654;9.294;2022-07-11T11:45:50;1.70;;;1.53;;
38413;SDS011;24195;48.654;9.294;2022-07-11T11:48:32;1.47;;;1.40;;
38413;SDS011;24195;48.654;9.294;2022-07-11T11:51:08;1.90;;;1.33;;
38413;SDS011;24195;48.654;9.294;2022-07-11T11:56:23;1.50;;;1.40;;
38413;SDS011;24195;48.654;9.294;2022-07-11T11:58:57;1.73;;;1.60;;
38413;SDS011;24195;48.654;9.294;2022-07-11T12:01:25;1.70;;;1.60;;
38413;SDS011;24195;48.654;9.294;2022-07-11T12:03:55;1.50;;;1.40;;
38413;SDS011;24195;48.654;9.294;2022-07-11T12:06:23;1.60;;;1.50;;
38413;SDS011;24195;48.654;9.294;2022-07-11T12:09:06;1.70;;;1.60;;
38413;SDS011;24195;48.654;9.294;2022-07-11T12:11:35;1.67;;;1.57;;
38413;SDS011;24195;48.654;9.294;2022-07-11T12:14:04;1.40;;;1.33;;
38413;SDS011;24195;48.654;9.294;2022-07-11T12:16:31;1.70;;;1.60;;
38413;SDS011;24195;48.654;9.294;2022-07-11T12:19:04;2.10;;;1.50;;
38413;SDS011;24195;48.654;9.294;2022-07-11T12:21:34;1.43;;;1.43;;
38413;SDS011;24195;48.654;9.294;2022-07-11T12:24:03;3.23;;;1.90;;
38413;SDS011;24195;48.654;9.294;2022-07-11T12:26:35;1.50;;;1.40;;
38413;SDS011;24195;48.654;9.294;2022-07-11T12:29:10;1.67;;;1.57;;
38413;SDS011;24195;48.654;9.294;2022-07-11T12:31:46;1.83;;;1.70;;
38413;SDS011;24195;48.654;9.294;2022-07-11T12:34:16;2.47;;;1.90;;
38413;SDS011;24195;48.654;9.294;2022-07-11T12:36:43;1.93;;;1.83;;
38413;SDS011;24195;48.654;9.294;2022-07-11T12:39:20;1.90;;;1.80;;
38413;SDS011;24195;48.654;9.294;2022-07-11T12:41:48;2.20;;;2.10;;
38413;SDS011;24195;48.654;9.294;2022-07-11T12:44:20;1.93;;;1.80;;
38413;SDS011;24195;48.654;9.294;2022-07-11T12:47:05;2.00;;;1.90;;
38413;SDS011;24195;48.654;9.294;2022-07-11T12:49:31;2.23;;;2.03;;
38413;SDS011;24195;48.654;9.294;2022-07-11T12:51:58;2.23;;;1.90;;
38413;SDS011;24195;48.654;9.294;2022-07-11T12:54:28;3.33;;;2.00;;
38413;SDS011;24195;48.654;9.294;2022-07-11T12:56:56;1.63;;;1.53;;
38413;SDS011;24195;48.654;9.294;2022-07-11T12:59:28;1.90;;;1.77;;
38413;SDS011;24195;48.654;9.294;2022-07-11T13:02:09;2.63;;;1.90;;
38413;SDS011;24195;48.654;9.294;2022-07-11T13:04:49;1.87;;;1.77;;
38413;SDS011;24195;48.654;9.294;2022-07-11T13:07:24;2.73;;;2.03;;
38413;SDS011;24195;48.654;9.294;2022-07-11T13:10:13;1.87;;;1.77;;
38413;SDS011;24195;48.654;9.294;2022-07-11T13:12:41;2.10;;;1.90;;
38413;SDS011;24195;48.654;9.294;2022-07-11T13:15:08;1.83;;;1.73;;
38413;SDS011;24195;48.654;9.294;2022-07-11T13:20:34;2.30;;;2.10;;
38413;SDS011;24195;48.654;9.294;2022-07-11T13:23:01;2.53;;;2.30;;
38413;SDS011;24195;48.654;9.294;2022-07-11T13:25:27;1.93;;;1.77;;
38413;SDS011;24195;48.654;9.294;2022-07-11T13:27:56;1.90;;;1.80;;
38413;SDS011;24195;48.654;9.294;2022-07-11T13:30:23;1.83;;;1.73;;
38413;SDS011;24195;48.654;9.294;2022-07-11T13:32:56;2.20;;;2.10;;
38413;SDS011;24195;48.654;9.294;2022-07-11T13:35:31;2.30;;;2.00;;
38413;SDS011;24195;48.654;9.294;2022-07-11T13:38:05;2.00;;;1.90;;
38413;SDS011;24195;48.654;9.294;2022-07-11T13:40:39;2.13;;;2.03;;
38413;SDS011;24195;48.654;9.294;2022-07-11T13:43:05;2.00;;;1.80;;
38413;SDS011;24195;48.654;9.294;2022-07-11T13:45:39;1.97;;;1.87;;
38413;SDS011;24195;48.654;9.294;2022-07-11T13:48:05;2.23;;;2.13;;
38413;SDS011;24195;48.654;9.294;2022-07-11T13:50:31;2.40;;;2.00;;
38413;SDS011;24195;48.654;9.294;2022-07-11T13:52:57;2.30;;;2.00;;
38413;SDS011;24195;48.654;9.294;2022-07-11T13:55:23;4.03;;;2.03;;
38413;SDS011;24195;48.654;9.294;2022-07-11T13:57:50;2.07;;;1.97;;
38413;SDS011;24195;48.654;9.294;2022-07-11T14:00:18;2.40;;;2.20;;
38413;SDS011;24195;48.654;9.294;2022-07-11T14:02:45;2.10;;;2.00;;
38413;SDS011;24195;48.654;9.294;2022-07-11T14:05:18;2.93;;;2.73;;
38413;SDS011;24195;48.654;9.294;2022-07-11T14:07:48;3.07;;;2.13;;
38413;SDS011;24195;48.654;9.294;2022-07-11T14:10:14;2.23;;;2.13;;
38413;SDS011;24195;48.654;9.294;2022-07-11T14:12:40;1.97;;;1.87;;
38413;SDS011;24195;48.654;9.294;2022-07-11T14:15:07;2.33;;;2.20;;
38413;SDS011;24195;48.654;9.294;2022-07-11T14:17:34;2.60;;;2.43;;
38413;SDS011;24195;48.654;9.294;2022-07-11T14:20:07;2.23;;;2.13;;
38413;SDS011;24195;48.654;9.294;2022-07-11T14:22:33;2.27;;;2.17;;
38413;SDS011;24195;48.654;9.294;2022-07-11T14:24:58;2.37;;;2.27;;
38413;SDS011;24195;48.654;9.294;2022-07-11T14:27:24;2.20;;;2.10;;
38413;SDS011;24195;48.654;9.294;2022-07-11T14:29:49;2.37;;;2.27;;
38413;SDS011;24195;48.654;9.294;2022-07-11T14:32:16;2.63;;;2.43;;
38413;SDS011;24195;48.654;9.294;2022-07-11T14:34:43;3.20;;;2.20;;
38413;SDS011;24195;48.654;9.294;2022-07-11T14:37:09;2.90;;;2.37;;
38413;SDS011;24195;48.654;9.294;2022-07-11T14:39:34;4.50;;;2.67;;
38413;SDS011;24195;48.654;9.294;2022-07-11T14:42:00;2.67;;;2.57;;
38413;SDS011;24195;48.654;9.294;2022-07-11T14:44:26;2.80;;;2.60;;
38413;SDS011;24195;48.654;9.294;2022-07-11T14:46:52;2.43;;;2.13;;
38413;SDS011;24195;48.654;9.294;2022-07-11T14:49:18;4.03;;;2.50;;
38413;SDS011;24195;48.654;9.294;2022-07-11T14:51:44;3.00;;;2.50;;
38413;SDS011;24195;48.654;9.294;2022-07-11T14:54:09;2.93;;;2.73;;
38413;SDS011;24195;48.654;9.294;2022-07-11T14:56:36;2.63;;;2.43;;
38413;SDS011;24195;48.654;9.294;2022-07-11T14:59:02;2.83;;;2.73;;
38413;SDS011;24195;48.654;9.294;2022-07-11T15:01:29;3.40;;;3.10;;
38413;SDS011;24195;48.654;9.294;2022-07-11T15:03:54;2.53;;;2.33;;
38413;SDS011;24195;48.654;9.294;2022-07-11T15:06:20;2.60;;;2.50;;
38413;SDS011;24195;48.654;9.294;2022-07-11T15:08:47;3.20;;;3.00;;
38413;SDS011;24195;48.654;9.294;2022-07-11T15:11:31;2.80;;;2.47;;
38413;SDS011;24195;48.654;9.294;2022-07-11T15:14:15;2.83;;;2.63;;
38413;SDS011;24195;48.654;9.294;2022-07-11T15:16:41;2.30;;;2.20;;
38413;SDS011;24195;48.654;9.294;2022-07-11T15:19:06;2.77;;;2.50;;
38413;SDS011;24195;48.654;9.294;2022-07-11T15:21:35;2.10;;;2.00;;
38413;SDS011;24195;48.654;9.294;2022-07-11T15:24:01;2.37;;;2.17;;
38413;SDS011;24195;48.654;9.294;2022-07-11T15:26:27;2.73;;;2.53;;
38413;SDS011;24195;48.654;9.294;2022-07-11T15:28:53;3.00;;;2.80;;
38413;SDS011;24195;48.654;9.294;2022-07-11T15:31:21;2.90;;;2.70;;
38413;SDS011;24195;48.654;9.294;2022-07-11T15:33:47;2.70;;;2.50;;
38413;SDS011;24195;48.654;9.294;2022-07-11T15:36:13;2.67;;;2.50;;
38413;SDS011;24195;48.654;9.294;2022-07-11T15:38:41;3.23;;;3.03;;
38413;SDS011;24195;48.654;9.294;2022-07-11T15:41:12;4.97;;;3.03;;